Corte Madera, CA

6:52 PM PDT on September 23, 2014 (GMT -0700)
Horse Hill | Change Station
CLOSE
Current Station
Personal Weather Station
Location: Mill Valley, CA
Elevation: 20 ft
Nearby Weather Stations

Elev 20 ft 37.91 °N, 122.52 °W | Updated 4 minutes ago

Partly Cloudy
Partly Cloudy
68.3 °F
Feels Like 68.3 °F
N
0.0
Wind Variable Wind from North
Gusts 1.0 mph

Today
High -- | Low -- °F
--% Chance of Precip.
Yesterday
High -- | Low -- °F
Precip. -- in
6:58 AM 7:05 PM
Waning Crescent, 0% visible
Pressure 29.93 in
Visibility 10.0 miles
Clouds Scattered Clouds 1000 ft
Mostly Cloudy 1400 ft
Dew Point 61 °F
Humidity 78%
Rainfall 0.00 in
Snow Depth 0 in , 0 in , 0 in
UV 0.0 out of 12
Pollen 3.80 out of 12
PM2.5 Good
Flu Activity Not available.
SPECI KOAK 240108Z 30008G16KT 10SM SCT010 BKN014 21/16 A2993 RMK AO2

More Conditions Fewer Conditions

Pressure 29.93 in
Visibility 10.0 miles
Clouds Scattered Clouds 1000 ft
Mostly Cloudy 1400 ft
Dew Point 61 °F
Humidity 78%
Rainfall 0.00 in
Snow Depth 0 in , 0 in , 0 in
UV 0.0 out of 12
Pollen 3.80 out of 12
PM2.5 Good
Flu Activity Not available.
SPECI KOAK 240108Z 30008G16KT 10SM SCT010 BKN014 21/16 A2993 RMK AO2

More Conditions Fewer Conditions

10-Day Weather Forecast

Almanac

Astronomy

Sep. 23, 2014 Rise Set
Actual Time 6:58 AM PDT 7:05 PM PDT
Civil Twilight 6:32 AM PDT 7:31 PM PDT
Nautical Twilight 6:01 AM PDT 8:02 PM PDT
Astronomical Twilight 5:30 AM PDT 8:33 PM PDT
Moon 6:28 AM PDT (9/23) 6:47 PM PDT (9/23)
Length of Visible Light 12h 58m
Length of Day
12h 06m
Tomorrow will be 2m 26s shorter.
Waning Crescent, 0% of the Moon is Illuminated
Today
Waning Crescent
Sep 24
New
Oct 1
First Quarter
Oct 8
Full
Oct 15
Last Quarter

Today's Extremes

State Highs State Lows

Community

WunderPhotos

Upload Photos

1,755,844 photos uploaded!

Nearby

Air Quality

  Air Quality AQ Index Pollutant
Yesterday Good
OZONE
Current Good
PM2.5
Tuesday Good
PM2.5
Wednesday Good
PM2.5
Thursday Good
OZONE
Friday Good
OZONE
Saturday Good
OZONE
Sunday Good
OZONE

Snow Depth

Station Depth Elevation
Leavitt Meadows 0 in 7200 ft
Leavitt Lake 0 in 9400 ft
CSS Lab 0 in 6900 ft
Blue Lakes 0 in 8000 ft
Adin Mountain 0 in 6200 ft

Earthquake Activity

City Distance Mag. Time & Date
Yountville, California 29 miles 2.6 1:17 PM PDT
2014-09-21
Minimum magnitude displayed is 2.5.

Coastal Water Temperatures

Place Temperature
San Francisco, CA 66.0 °F
Port Chicago, CA 71.1 °F

Nearby Weather Stations